AirNav   TITAN Aviation Fuels
 
 705 users online  

1SC6 Flying W Airport
Hartsville, South Carolina, USA


FAA INFORMATION EFFECTIVE 03 NOVEMBER 2022

Location

FAA Identifier: 1SC6
Lat/Long: 34-25-44.1200N 080-04-11.7800W
34-25.735333N 080-04.196333W
34.4289222,-80.0699389
(estimated)
Elevation: 292 ft. / 89 m (estimated)
From city: 4 miles N of HARTSVILLE, SC
Time zone: UTC +0 (year round; does not observe DST)
Zip code: 29550

Airport Operations

Airport use: Private use. Permission required prior to landing
Activation date: 06/2022
Control tower: no
ARTCC: JACKSONVILLE CENTER
FSS: ANDERSON FLIGHT SERVICE STATION
Attendance: 
Segmented circle: no

Airport Communications

CTAF: 122.9
WX AWOS-3 at HVS (2.9 nm SW): 118.225 (843-339-9625)
WX AWOS-3PT at UDG (9 nm E): 119.925 (843-393-8220)
WX AWOS-3 at CQW (18 nm N): 124.825 (843-537-3301)

Nearby radio navigation aids

VOR radial/distance  VOR name  Freq  Var
CTFr146/16.7CHESTERFIELD VOR/DME114.5503W
FLOr303/23.6FLORENCE VORTAC115.2003W

 
NDB name  Hdg/Dist  Freq  Var  ID
HARTSVILLE068/2.834107WHVS .... ...- ...
DARLINGTON271/9.124506WUDG ..- -.. --.
BENNETTSVILLE243/20.223008WBES -... . ...
SUMTER036/30.025207WSMS ... -- ...
DILLON277/34.727409WDLC -.. .-.. -.-.
EVANS342/37.642006WCFY -.-. ..-. -.--

Airport Services

Runway Information

Runway 9/27

Dimensions: 1606 x 130 ft. / 490 x 40 m
Surface: turf
RUNWAY 9  RUNWAY 27
Latitude: 34-25.734833N34-25.735833N
Longitude: 080-04.356000W080-04.036667W
Elevation: 287.0 ft.270.0 ft.
Traffic pattern: leftright

Airport Ownership and Management from official FAA records

Ownership: Privately-owned
Owner: FLYING W
2020 OUSLEYDALE RD
HARTSVILLE, SC 29550
Phone 843-307-3503
Manager: FLYING W
2020 OUSLEYDALE RD
HARTSVILLE, SC 29550
Phone 843-307-3503

Airport Operational Statistics

Aircraft based on the field: 2
Single engine airplanes: 2
    

Instrument Procedures

There are no published instrument procedures at 1SC6.

Some nearby airports with instrument procedures:

KHVS - Hartsville Regional Airport (3 nm SW)
KUDG - Darlington County Airport (9 nm E)
KCQW - Cheraw Municipal Airport/Lynch Bellinger Field (18 nm N)
KBBP - Marlboro County Jetport - H E Avent Field (20 nm NE)
KFLO - Florence Regional Airport (23 nm SE)
 
Loc | Ops | Rwys | IFR | FBO | Links
Com | Nav | Svcs | Stats | Notes
Aerial photo
No photo
 
Airport distance calculator
Flying to Flying W Airport? Find the distance to fly.

From to 1SC6

Sunrise and sunset
Times for 27-Nov-2022
 Zulu (UTC)
Morning civil twilight11:39
Sunrise12:06
Sunset22:10
Evening civil twilight22:37

Current date and time
Zulu (UTC)  27-Nov-2022 13:09:34
 
METAR
KHVS 
3nm SW 
271255Z AUTO 00000KT M1/4SM FG OVC002 12/12 A2985 RMK AO2
KUDG 
9nm E 
271256Z AUTO 17003KT 1/2SM -RA FG OVC003 13/13 A2986 RMK AO2 SLP112 T01280128 PNO $
KCQW 
18nm N 
271255Z AUTO 00000KT 1 1/4SM -RA OVC002 12/12 A2984 RMK AO2 P0004
TAF
KFLO 
22nm SE 
271146Z 2712/2812 08003KT 5SM -RA BR VCSH OVC004 TEMPO 2712/2713 BKN010 FM271300 17011KT P6SM VCSH BKN015 WS020/19040KT TEMPO 2713/2716 3SM SHRA BR FM271600 22015G25KT 5SM SHRA BR VCTS BKN015CB WS020/21050KT FM272000 23013G20KT P6SM BKN250 WS020/24040KT FM280600 26011KT P6SM SKC WS020/27045KT
NOTAMs
Click for the latest NOTAMs
NOTAMs are issued by the DoD/FAA and will open in a separate window not controlled by AirNav.

 

 
 

Would you like to see your business listed on this page?

 If your business provides an interesting product or service to pilots, flight crews, aircraft, or users of the Flying W Airport, you should consider listing it here.  To start the listing process, click on the button below
 
Add a business
 

Other Pages about Flying W Airport

Update a link
 
Copyright © AirNav, LLC. All rights reserved. Privacy Policy  Contact